createdAt,value
2018-08-25T00:00:15.424Z,14.18
2018-08-25T00:02:44.045Z,14.27
2018-08-25T00:05:12.596Z,14.04
2018-08-25T00:07:41.161Z,13.98
2018-08-25T00:10:09.755Z,13.99
2018-08-25T00:12:38.377Z,14.21
2018-08-25T00:15:06.945Z,14.12
2018-08-25T00:17:35.504Z,14.14
2018-08-25T00:20:04.094Z,14.21
2018-08-25T00:22:32.636Z,14.23
2018-08-25T00:25:01.168Z,14.22
2018-08-25T00:27:29.732Z,14.22
2018-08-25T00:29:58.353Z,14.19
2018-08-25T00:32:26.905Z,14.23
2018-08-25T00:34:55.421Z,14.29
2018-08-25T00:37:23.981Z,13.75
2018-08-25T00:39:52.500Z,13.80
2018-08-25T00:42:21.053Z,14.05
2018-08-25T00:44:49.600Z,13.97
2018-08-25T00:47:18.192Z,14.05
2018-08-25T00:49:46.765Z,14.04
2018-08-25T00:52:15.334Z,14.11
2018-08-25T00:54:43.938Z,13.97
2018-08-25T00:57:12.538Z,13.99
2018-08-25T00:59:41.080Z,13.98
2018-08-25T01:02:09.649Z,14.15
2018-08-25T01:04:38.212Z,14.10
2018-08-25T01:07:06.761Z,14.27
2018-08-25T01:09:35.366Z,13.29
2018-08-25T01:12:03.925Z,13.41
2018-08-25T01:14:32.513Z,13.65
2018-08-25T01:17:01.087Z,13.63
2018-08-25T01:19:29.660Z,13.88
2018-08-25T01:21:58.198Z,13.84
2018-08-25T01:24:26.756Z,14.00
2018-08-25T01:26:55.285Z,13.78
2018-08-25T01:29:23.824Z,13.81
2018-08-25T01:31:52.359Z,13.87
2018-08-25T01:34:20.922Z,13.88
2018-08-25T01:36:49.457Z,13.96
2018-08-25T01:39:18.012Z,14.03
2018-08-25T01:41:46.589Z,14.03
2018-08-25T01:44:15.125Z,14.04
2018-08-25T01:46:43.658Z,13.93
2018-08-25T01:49:12.768Z,14.01
2018-08-25T01:51:41.289Z,13.96
2018-08-25T01:54:09.845Z,14.02
2018-08-25T01:56:38.392Z,13.99
2018-08-25T01:59:07.001Z,13.89
2018-08-25T02:01:35.530Z,13.98
2018-08-25T02:04:04.080Z,13.86
2018-08-25T02:06:32.593Z,13.79
2018-08-25T02:09:01.131Z,14.04
2018-08-25T02:11:29.652Z,13.99
2018-08-25T02:13:58.199Z,14.03
2018-08-25T02:16:26.716Z,13.83
2018-08-25T02:18:55.276Z,14.02
2018-08-25T02:21:23.792Z,14.01
2018-08-25T02:23:52.339Z,14.15
2018-08-25T02:26:20.885Z,13.93
2018-08-25T02:28:49.397Z,14.03
2018-08-25T02:31:17.940Z,13.99
2018-08-25T02:33:49.268Z,13.96
2018-08-25T02:36:18.267Z,14.19
2018-08-25T02:38:47.142Z,14.20
2018-08-25T02:41:16.002Z,14.02
2018-08-25T02:43:44.520Z,13.91
2018-08-25T02:46:13.073Z,13.99
2018-08-25T02:48:41.584Z,14.01
2018-08-25T02:51:10.128Z,14.12
2018-08-25T02:53:38.705Z,13.89
2018-08-25T02:56:07.318Z,13.93
2018-08-25T02:58:35.828Z,13.93
2018-08-25T03:01:04.448Z,13.99
2018-08-25T03:03:32.966Z,13.81
2018-08-25T03:06:01.512Z,13.79
2018-08-25T03:08:30.031Z,13.80
2018-08-25T03:10:58.589Z,13.90
2018-08-25T03:13:27.105Z,13.98
2018-08-25T03:15:55.648Z,13.99
2018-08-25T03:18:24.173Z,13.82
2018-08-25T03:20:52.735Z,13.83
2018-08-25T03:23:21.256Z,13.92
2018-08-25T03:25:49.811Z,13.95
2018-08-25T03:28:18.333Z,14.00
2018-08-25T03:30:47.196Z,14.59
2018-08-25T03:33:16.439Z,14.33
2018-08-25T03:35:45.006Z,14.33
2018-08-25T03:38:13.516Z,14.00
2018-08-25T03:40:42.066Z,13.88
2018-08-25T03:43:10.589Z,14.16
2018-08-25T03:45:39.145Z,14.51
2018-08-25T03:48:07.748Z,14.27
2018-08-25T03:50:36.326Z,14.78
2018-08-25T03:53:04.964Z,14.14
2018-08-25T03:55:33.613Z,14.71
2018-08-25T03:58:02.117Z,14.71
2018-08-25T04:00:30.630Z,14.12
2018-08-25T04:02:59.186Z,14.55
2018-08-25T04:05:27.709Z,14.86
2018-08-25T04:07:56.296Z,14.51
2018-08-25T04:10:24.884Z,14.25
2018-08-25T04:12:53.434Z,14.24
2018-08-25T04:15:21.950Z,14.05
2018-08-25T04:17:50.488Z,14.59
2018-08-25T04:20:19.029Z,14.35
2018-08-25T04:22:47.601Z,14.28
2018-08-25T04:25:16.472Z,13.93
2018-08-25T04:27:45.017Z,14.09
2018-08-25T04:30:13.529Z,14.45
2018-08-25T04:32:42.070Z,14.07
2018-08-25T04:35:10.589Z,13.82
2018-08-25T04:37:39.404Z,14.10
2018-08-25T04:40:07.956Z,14.11
2018-08-25T04:42:36.536Z,14.13
2018-08-25T04:45:05.069Z,14.11
2018-08-25T04:47:33.608Z,14.23
2018-08-25T04:50:02.129Z,14.34
2018-08-25T04:52:30.740Z,14.13
2018-08-25T04:54:59.544Z,14.12
2018-08-25T04:57:28.143Z,14.10
2018-08-25T04:59:56.657Z,14.07
2018-08-25T05:02:25.225Z,14.02
2018-08-25T05:04:53.797Z,14.06
2018-08-25T05:07:22.308Z,13.95
2018-08-25T05:09:50.853Z,13.84
2018-08-25T05:12:23.322Z,13.77
2018-08-25T05:14:51.888Z,13.78
2018-08-25T05:17:21.395Z,13.83
2018-08-25T05:19:50.201Z,13.75
2018-08-25T05:22:19.366Z,13.57
2018-08-25T05:24:47.921Z,13.66
2018-08-25T05:27:17.835Z,13.67
2018-08-25T05:29:47.096Z,13.43
2018-08-25T05:32:22.260Z,13.51
2018-08-25T05:34:50.816Z,13.38
2018-08-25T05:37:19.584Z,13.26
2018-08-25T05:39:48.152Z,13.23
2018-08-25T05:42:17.792Z,13.19
2018-08-25T05:44:46.732Z,13.20
2018-08-25T05:47:15.257Z,13.18
2018-08-25T05:49:46.766Z,13.15
2018-08-25T05:52:17.458Z,13.14
2018-08-25T05:54:58.989Z,13.12
2018-08-25T05:57:39.431Z,12.98
2018-08-25T06:00:26.446Z,13.04
2018-08-25T06:03:09.455Z,12.82
2018-08-25T06:05:40.157Z,12.81
2018-08-25T06:08:08.679Z,12.61
2018-08-25T06:10:37.249Z,12.59
2018-08-25T06:13:05.761Z,12.57
2018-08-25T06:15:34.284Z,12.50
2018-08-25T06:18:02.789Z,12.59
2018-08-25T06:20:31.320Z,12.56
2018-08-25T06:23:00.794Z,12.54
2018-08-25T06:25:29.337Z,12.55
2018-08-25T06:27:57.864Z,12.47
2018-08-25T06:30:26.405Z,12.45
2018-08-25T06:32:54.920Z,12.26
2018-08-25T06:35:23.524Z,12.27
2018-08-25T06:37:52.043Z,12.22
2018-08-25T06:40:20.592Z,12.30
2018-08-25T06:42:49.235Z,12.28
2018-08-25T06:45:17.841Z,12.44
2018-08-25T06:47:49.814Z,12.39
2018-08-25T06:50:19.082Z,12.37
2018-08-25T06:52:47.612Z,12.34
2018-08-25T06:55:23.664Z,12.53
2018-08-25T06:57:52.180Z,12.61
2018-08-25T07:00:29.114Z,12.57
2018-08-25T07:02:57.641Z,12.56
2018-08-25T07:05:26.313Z,12.61
2018-08-25T07:07:54.843Z,12.58
2018-08-25T07:10:26.776Z,12.62
2018-08-25T07:12:55.627Z,12.68
2018-08-25T07:15:33.073Z,12.63
2018-08-25T07:18:06.786Z,12.61
2018-08-25T07:20:35.525Z,12.59
2018-08-25T07:23:06.219Z,12.69
2018-08-25T07:25:34.981Z,12.60
2018-08-25T07:28:03.497Z,12.56
2018-08-25T07:30:32.006Z,12.54
2018-08-25T07:33:00.634Z,12.32
2018-08-25T07:38:06.919Z,12.64
2018-08-25T07:40:35.616Z,12.44
2018-08-25T07:43:10.271Z,12.39
2018-08-25T07:45:39.458Z,12.40
2018-08-25T07:48:08.018Z,12.44
2018-08-25T07:50:38.027Z,12.49
2018-08-25T07:53:06.703Z,12.44
2018-08-25T07:55:35.258Z,12.44
2018-08-25T07:58:03.793Z,12.38
2018-08-25T08:00:32.305Z,12.49
2018-08-25T08:03:00.853Z,12.57
2018-08-25T08:05:29.392Z,12.49
2018-08-25T08:07:58.208Z,12.55
2018-08-25T08:10:26.800Z,12.69
2018-08-25T08:12:55.527Z,12.74
2018-08-25T08:15:27.673Z,12.45
2018-08-25T08:17:56.240Z,12.53
2018-08-25T08:20:24.744Z,12.56
2018-08-25T08:24:53.734Z,12.58
2018-08-25T08:27:31.649Z,12.79
2018-08-25T08:30:08.145Z,12.74
2018-08-25T08:32:36.980Z,12.82
2018-08-25T08:35:07.419Z,12.98
2018-08-25T08:37:36.017Z,13.06
2018-08-25T08:40:04.895Z,13.01
2018-08-25T08:42:33.511Z,13.04
2018-08-25T08:45:03.653Z,13.16
2018-08-25T08:47:32.332Z,13.07
2018-08-25T08:50:00.897Z,13.07
2018-08-25T08:52:29.407Z,13.47
2018-08-25T08:54:57.989Z,13.55
2018-08-25T08:57:33.152Z,13.70
2018-08-25T09:00:05.520Z,13.71
2018-08-25T09:02:34.089Z,13.97
2018-08-25T09:05:02.732Z,13.77
2018-08-25T09:07:31.250Z,13.67
2018-08-25T09:09:59.813Z,13.81
2018-08-25T09:12:28.329Z,13.99
2018-08-25T09:14:56.873Z,14.07
2018-08-25T09:17:25.380Z,14.02
2018-08-25T09:19:53.929Z,14.16
2018-08-25T09:22:22.656Z,13.95
2018-08-25T09:24:51.250Z,14.16
2018-08-25T09:27:19.919Z,14.26
2018-08-25T09:29:48.443Z,14.09
2018-08-25T09:32:16.952Z,14.05
2018-08-25T09:34:45.501Z,14.19
2018-08-25T09:37:14.021Z,14.77
2018-08-25T09:39:42.578Z,14.47
2018-08-25T09:42:11.104Z,14.44
2018-08-25T09:44:39.649Z,14.68
2018-08-25T09:47:08.252Z,14.64
2018-08-25T09:49:36.765Z,14.49
2018-08-25T09:52:11.632Z,14.71
2018-08-25T09:54:40.221Z,14.79
2018-08-25T09:57:08.734Z,15.05
2018-08-25T09:59:37.374Z,15.47
2018-08-25T10:02:08.349Z,14.74
2018-08-25T10:04:36.921Z,14.98
2018-08-25T10:07:05.824Z,15.05
2018-08-25T10:09:34.381Z,14.84
2018-08-25T10:12:02.922Z,14.80
2018-08-25T10:14:31.548Z,15.01
2018-08-25T10:17:00.235Z,15.03
2018-08-25T10:19:28.740Z,15.02
2018-08-25T10:21:57.282Z,15.23
2018-08-25T10:24:25.884Z,15.14
2018-08-25T10:26:54.584Z,15.47
2018-08-25T10:29:23.100Z,15.60
2018-08-25T10:31:52.704Z,15.63
2018-08-25T10:34:21.231Z,15.45
2018-08-25T10:36:49.829Z,15.54
2018-08-25T10:39:18.372Z,15.78
2018-08-25T10:41:47.038Z,15.38
2018-08-25T10:44:15.468Z,15.38
2018-08-25T10:46:44.018Z,15.46
2018-08-25T10:49:12.563Z,15.22
2018-08-25T10:51:41.143Z,15.65
2018-08-25T10:54:09.721Z,15.45
2018-08-25T10:56:38.301Z,15.22
2018-08-25T10:59:06.888Z,15.43
2018-08-25T11:01:35.469Z,15.21
2018-08-25T11:04:04.024Z,15.33
2018-08-25T11:06:32.576Z,15.74
2018-08-25T11:09:01.097Z,16.33
2018-08-25T11:11:29.635Z,16.03
2018-08-25T11:13:58.164Z,15.85
2018-08-25T11:16:26.749Z,16.08
2018-08-25T11:18:55.260Z,16.06
2018-08-25T11:21:23.824Z,15.91
2018-08-25T11:23:52.949Z,16.36
2018-08-25T11:26:21.569Z,16.31
2018-08-25T11:28:50.121Z,16.68
2018-08-25T11:31:18.660Z,16.57
2018-08-25T11:33:47.169Z,16.46
2018-08-25T11:36:15.790Z,16.54
2018-08-25T11:38:44.317Z,17.13
2018-08-25T11:41:12.872Z,16.77
2018-08-25T11:43:41.392Z,16.52
2018-08-25T11:46:09.945Z,16.61
2018-08-25T11:48:38.793Z,16.79
2018-08-25T11:51:07.359Z,16.79
2018-08-25T11:53:36.017Z,17.03
2018-08-25T11:56:04.625Z,16.36
2018-08-25T11:58:33.155Z,17.04
2018-08-25T12:01:01.749Z,17.00
2018-08-25T12:03:30.384Z,16.49
2018-08-25T12:05:58.853Z,16.58
2018-08-25T12:08:27.404Z,16.60
2018-08-25T12:10:55.925Z,16.76
2018-08-25T12:13:24.513Z,17.01
2018-08-25T12:15:53.030Z,17.05
2018-08-25T12:18:22.989Z,17.20
2018-08-25T12:20:51.509Z,16.81
2018-08-25T12:23:20.102Z,17.16
2018-08-25T12:25:48.744Z,17.61
2018-08-25T12:28:17.334Z,16.61
2018-08-25T12:30:45.895Z,17.19
2018-08-25T12:33:14.415Z,17.15
2018-08-25T12:35:42.929Z,18.04
2018-08-25T12:38:11.481Z,18.14
2018-08-25T12:40:40.007Z,17.65
2018-08-25T12:43:08.877Z,17.86
2018-08-25T12:45:37.405Z,17.05
2018-08-25T12:48:05.978Z,17.10
2018-08-25T12:50:34.509Z,17.01
2018-08-25T12:53:03.079Z,16.88
2018-08-25T12:55:31.637Z,16.83
2018-08-25T12:58:00.206Z,17.32
2018-08-25T13:00:28.717Z,17.39
2018-08-25T13:02:57.316Z,17.29
2018-08-25T13:05:26.320Z,17.09
2018-08-25T13:07:54.898Z,17.13
2018-08-25T13:10:23.400Z,17.38
2018-08-25T13:12:51.919Z,17.63
2018-08-25T13:15:20.417Z,17.53
2018-08-25T13:17:48.952Z,17.92
2018-08-25T13:20:17.453Z,17.74
2018-08-25T13:22:45.994Z,17.85
2018-08-25T13:25:14.509Z,17.42
2018-08-25T13:27:43.036Z,17.84
2018-08-25T13:30:11.553Z,17.65
2018-08-25T13:32:40.088Z,18.15
2018-08-25T13:35:08.597Z,18.22
2018-08-25T13:37:37.093Z,17.99
2018-08-25T13:40:06.196Z,17.70
2018-08-25T13:42:34.675Z,17.48
2018-08-25T13:45:03.545Z,17.43
2018-08-25T13:47:32.046Z,17.72
2018-08-25T13:50:00.593Z,18.65
2018-08-25T13:52:29.204Z,18.14
2018-08-25T13:54:57.768Z,17.96
2018-08-25T13:57:26.578Z,18.58
2018-08-25T13:59:55.106Z,17.80
2018-08-25T14:02:23.616Z,17.86
2018-08-25T14:04:52.185Z,17.44
2018-08-25T14:07:20.689Z,17.79
2018-08-25T14:09:49.216Z,17.99
2018-08-25T14:12:17.727Z,17.94
2018-08-25T14:14:46.269Z,17.95
2018-08-25T14:17:14.769Z,17.70
2018-08-25T14:19:43.303Z,17.74
2018-08-25T14:22:11.853Z,17.64
2018-08-25T14:24:40.381Z,17.45
2018-08-25T14:27:08.893Z,17.61
2018-08-25T14:29:37.417Z,17.36
2018-08-25T14:32:05.980Z,17.19
2018-08-25T14:34:34.536Z,17.22
2018-08-25T14:37:03.184Z,17.23
2018-08-25T14:39:31.744Z,17.34
2018-08-25T14:42:00.279Z,17.21
2018-08-25T14:44:28.820Z,17.18
2018-08-25T14:46:57.369Z,17.55
2018-08-25T14:49:26.727Z,17.82
2018-08-25T14:51:55.253Z,17.52
2018-08-25T14:54:23.949Z,17.36
2018-08-25T14:56:52.533Z,17.33
2018-08-25T14:59:21.057Z,17.61
2018-08-25T15:01:49.620Z,17.73
2018-08-25T15:04:18.133Z,18.04
2018-08-25T15:06:46.697Z,18.30
2018-08-25T15:09:15.277Z,18.39
2018-08-25T15:11:44.947Z,18.80
2018-08-25T15:14:13.508Z,18.64
2018-08-25T15:16:42.085Z,18.89
2018-08-25T15:19:10.901Z,18.46
2018-08-25T15:21:39.446Z,18.71
2018-08-25T15:24:08.000Z,18.36
2018-08-25T15:26:36.640Z,18.79
2018-08-25T15:29:05.217Z,19.19
2018-08-25T15:31:33.808Z,18.43
2018-08-25T15:34:02.353Z,18.23
2018-08-25T15:36:30.912Z,18.36
2018-08-25T15:38:59.437Z,18.63
2018-08-25T15:41:27.987Z,18.69
2018-08-25T15:43:57.513Z,18.50
2018-08-25T15:46:26.043Z,18.13
2018-08-25T15:48:55.384Z,18.23
2018-08-25T15:51:23.933Z,18.39
2018-08-25T15:53:52.488Z,18.17
2018-08-25T15:56:21.025Z,18.08
2018-08-25T15:58:49.566Z,17.69
2018-08-25T16:01:18.141Z,17.65
2018-08-25T16:03:46.672Z,17.60
2018-08-25T16:06:15.182Z,18.14
2018-08-25T16:08:43.770Z,18.23
2018-08-25T16:11:12.272Z,18.17
2018-08-25T16:13:40.920Z,17.88
2018-08-25T16:16:09.432Z,17.81
2018-08-25T16:18:37.964Z,17.62
2018-08-25T16:21:06.237Z,17.71
2018-08-25T16:23:34.815Z,17.67
2018-08-25T16:26:03.477Z,17.60
2018-08-25T16:28:32.021Z,17.60
2018-08-25T16:31:00.517Z,17.70
2018-08-25T16:33:29.132Z,17.72
2018-08-25T16:35:57.628Z,17.94
2018-08-25T16:38:26.183Z,18.06
2018-08-25T16:40:55.026Z,17.72
2018-08-25T16:43:23.624Z,17.59
2018-08-25T16:45:52.207Z,17.36
2018-08-25T16:48:20.736Z,17.46
2018-08-25T16:50:49.232Z,17.78
2018-08-25T16:53:17.772Z,17.72
2018-08-25T16:55:46.367Z,17.76
2018-08-25T16:58:15.025Z,17.64
2018-08-25T17:00:43.540Z,17.83
2018-08-25T17:03:13.256Z,17.98
2018-08-25T17:05:41.913Z,18.26
2018-08-25T17:08:10.441Z,18.44
2018-08-25T17:10:39.061Z,18.47
2018-08-25T17:13:07.657Z,18.52
2018-08-25T17:15:36.165Z,18.35
2018-08-25T17:18:04.795Z,18.16
2018-08-25T17:20:34.164Z,18.35
2018-08-25T17:23:03.287Z,18.51
2018-08-25T17:25:32.529Z,18.57
2018-08-25T17:28:01.029Z,18.50
2018-08-25T17:30:29.773Z,18.25
2018-08-25T17:32:59.094Z,18.47
2018-08-25T17:35:27.940Z,17.94
2018-08-25T17:37:56.592Z,17.82
2018-08-25T17:40:25.817Z,17.59
2018-08-25T17:42:54.313Z,17.38
2018-08-25T17:45:25.662Z,17.11
2018-08-25T17:47:54.197Z,17.16
2018-08-25T17:50:22.780Z,17.44
2018-08-25T17:52:52.564Z,17.44
2018-08-25T17:55:21.405Z,17.25
2018-08-25T17:57:56.706Z,17.08
2018-08-25T18:00:27.820Z,17.05
2018-08-25T18:02:56.536Z,16.74
2018-08-25T18:05:25.100Z,16.91
2018-08-25T18:07:53.622Z,16.99
2018-08-25T18:10:22.189Z,16.76
2018-08-25T18:12:50.712Z,16.71
2018-08-25T18:15:19.278Z,16.80
2018-08-25T18:17:48.081Z,16.57
2018-08-25T18:20:16.629Z,16.29
2018-08-25T18:22:45.908Z,15.95
2018-08-25T18:25:14.470Z,15.86
2018-08-25T18:27:43.148Z,15.85
2018-08-25T18:30:11.905Z,16.03
2018-08-25T18:32:42.844Z,16.03
2018-08-25T18:35:14.237Z,15.65
2018-08-25T18:37:42.752Z,15.67
2018-08-25T18:40:12.366Z,15.56
2018-08-25T18:42:42.636Z,15.45
2018-08-25T18:45:33.265Z,14.93
2018-08-25T18:48:01.807Z,14.69
2018-08-25T18:50:30.376Z,14.80
2018-08-25T18:52:59.416Z,15.04
2018-08-25T18:55:27.996Z,14.91
2018-08-25T18:57:56.529Z,14.67
2018-08-25T19:00:25.848Z,14.55
2018-08-25T19:02:57.458Z,13.81
2018-08-25T19:05:25.964Z,13.80
2018-08-25T19:07:54.489Z,14.08
2018-08-25T19:10:22.995Z,13.96
2018-08-25T19:12:51.529Z,14.05
2018-08-25T19:15:20.034Z,14.14
2018-08-25T19:17:48.571Z,13.96
2018-08-25T19:20:17.077Z,13.96
2018-08-25T19:22:45.611Z,13.90
2018-08-25T19:25:14.133Z,13.65
2018-08-25T19:27:42.666Z,13.65
2018-08-25T19:30:11.181Z,12.66
2018-08-25T19:32:39.795Z,13.35
2018-08-25T19:35:08.320Z,13.20
2018-08-25T19:37:37.877Z,13.06
2018-08-25T19:40:06.633Z,12.65
2018-08-25T19:42:35.987Z,13.08
2018-08-25T19:45:06.731Z,12.75
2018-08-25T19:47:41.082Z,12.69
2018-08-25T19:50:18.964Z,12.92
2018-08-25T19:52:51.618Z,12.79
2018-08-25T19:55:20.405Z,12.69
2018-08-25T19:57:48.977Z,12.55
2018-08-25T20:00:19.970Z,12.67
2018-08-25T20:02:51.559Z,12.65
2018-08-25T20:05:26.779Z,12.78
2018-08-25T20:08:01.505Z,12.54
2018-08-25T20:10:36.107Z,12.33
2018-08-25T20:13:06.017Z,12.06
2018-08-25T20:15:34.599Z,12.14
2018-08-25T20:18:03.429Z,12.18
2018-08-25T20:20:37.242Z,11.72
2018-08-25T20:23:10.124Z,11.79
2018-08-25T20:25:43.160Z,11.68
2018-08-25T20:28:12.770Z,11.76
2018-08-25T20:30:42.369Z,12.23
2018-08-25T20:33:10.991Z,12.27
2018-08-25T20:35:42.415Z,12.26
2018-08-25T20:38:10.997Z,12.23
2018-08-25T20:40:46.460Z,12.17
2018-08-25T20:43:15.240Z,12.11
2018-08-25T20:45:43.781Z,12.15
2018-08-25T20:48:12.354Z,12.36
2018-08-25T20:50:40.968Z,11.88
2018-08-25T20:53:09.586Z,11.74
2018-08-25T20:55:39.006Z,11.50
2018-08-25T20:58:07.592Z,11.39
2018-08-25T21:00:43.833Z,10.65
2018-08-25T21:03:29.758Z,11.09
2018-08-25T21:05:58.689Z,11.47
2018-08-25T21:08:27.195Z,11.10
2018-08-25T21:10:56.178Z,11.03
2018-08-25T21:13:24.697Z,11.07
2018-08-25T21:15:53.305Z,11.26
2018-08-25T21:18:27.351Z,10.98
2018-08-25T21:20:56.012Z,11.22
2018-08-25T21:23:25.312Z,10.73
2018-08-25T21:25:58.309Z,11.23
2018-08-25T21:28:28.336Z,11.41
2018-08-25T21:30:58.415Z,11.14
2018-08-25T21:33:27.065Z,10.48
2018-08-25T21:35:55.609Z,10.88
2018-08-25T21:38:26.242Z,10.18
2018-08-25T21:40:57.446Z,11.17
2018-08-25T21:43:27.556Z,10.11
2018-08-25T21:46:04.977Z,10.78
2018-08-25T21:48:35.702Z,11.12
2018-08-25T21:51:06.315Z,11.09
2018-08-25T21:53:38.703Z,10.93
2018-08-25T21:56:07.536Z,10.68
2018-08-25T21:58:36.902Z,10.60
2018-08-25T22:01:07.788Z,10.76
2018-08-25T22:03:41.170Z,10.65
2018-08-25T22:06:13.671Z,10.70
2018-08-25T22:08:43.605Z,10.68
2018-08-25T22:11:12.573Z,10.66
2018-08-25T22:13:42.065Z,10.54
2018-08-25T22:16:13.423Z,10.41
2018-08-25T22:18:45.117Z,10.53
2018-08-25T22:21:18.716Z,10.25
2018-08-25T22:23:49.917Z,10.86
2018-08-25T22:26:20.162Z,10.97
2018-08-25T22:28:53.964Z,10.35
2018-08-25T22:31:29.002Z,9.80
2018-08-25T22:34:01.256Z,10.24
2018-08-25T22:36:35.012Z,10.23
2018-08-25T22:39:11.935Z,10.13
2018-08-25T22:41:44.624Z,9.80
2018-08-25T22:44:15.218Z,9.98
2018-08-25T22:46:46.525Z,10.03
2018-08-25T22:49:16.716Z,9.99
2018-08-25T22:51:45.803Z,10.15
2018-08-25T22:54:15.225Z,9.83
2018-08-25T22:56:43.805Z,9.88
2018-08-25T22:59:12.519Z,10.13
2018-08-25T23:01:41.789Z,9.73
2018-08-25T23:04:10.377Z,9.88
2018-08-25T23:06:38.936Z,9.85
2018-08-25T23:09:08.984Z,9.74
2018-08-25T23:11:37.508Z,9.80
2018-08-25T23:14:06.100Z,9.75
2018-08-25T23:16:34.597Z,9.81
2018-08-25T23:19:03.252Z,9.32
2018-08-25T23:21:31.750Z,9.19
2018-08-25T23:24:00.601Z,9.13
2018-08-25T23:26:29.361Z,9.08
2018-08-25T23:28:57.897Z,9.36
2018-08-25T23:31:26.396Z,9.44
2018-08-25T23:33:54.934Z,9.44
2018-08-25T23:36:23.432Z,9.33
2018-08-25T23:38:51.984Z,9.48
2018-08-25T23:41:20.477Z,9.21
2018-08-25T23:43:49.013Z,9.25
2018-08-25T23:46:17.529Z,9.34
2018-08-25T23:48:46.056Z,9.22
2018-08-25T23:51:14.553Z,9.07
2018-08-25T23:53:43.109Z,9.12
2018-08-25T23:56:11.636Z,9.35
2018-08-25T23:58:40.193Z,9.12
